createdAt,value
2022-10-17T00:01:08.764Z,14.17
2022-10-17T00:03:38.940Z,14.15
2022-10-17T00:06:10.375Z,14.12
2022-10-17T00:08:39.386Z,14.11
2022-10-17T00:11:12.971Z,14.08
2022-10-17T00:13:42.939Z,14.06
2022-10-17T00:16:12.659Z,14.04
2022-10-17T00:18:40.796Z,14.03
2022-10-17T00:21:15.735Z,14.03
2022-10-17T00:23:43.375Z,14.03
2022-10-17T00:26:11.290Z,14.03
2022-10-17T00:28:39.681Z,14.03
2022-10-17T00:31:07.796Z,14.03
2022-10-17T00:33:36.402Z,14.02
2022-10-17T00:36:19.557Z,14.03
2022-10-17T00:38:50.229Z,14.05
2022-10-17T00:41:23.509Z,14.07
2022-10-17T00:44:03.343Z,14.08
2022-10-17T00:46:39.204Z,14.07
2022-10-17T00:49:12.580Z,14.08
2022-10-17T00:51:45.347Z,14.07
2022-10-17T00:54:16.192Z,14.07
2022-10-17T00:56:47.420Z,14.06
2022-10-17T00:59:18.813Z,14.04
2022-10-17T01:02:08.237Z,14.03
2022-10-17T01:04:44.600Z,14.02
2022-10-17T01:07:23.331Z,13.99
2022-10-17T01:09:55.935Z,13.96
2022-10-17T01:12:54.929Z,13.95
2022-10-17T01:16:10.792Z,13.92
2022-10-17T01:18:57.995Z,13.90
2022-10-17T01:21:40.999Z,13.87
2022-10-17T01:24:51.896Z,13.83
2022-10-17T01:27:39.145Z,13.79
2022-10-17T01:30:22.986Z,13.71
2022-10-17T01:33:20.904Z,13.67
2022-10-17T01:35:55.917Z,13.60
2022-10-17T01:38:35.642Z,13.57
2022-10-17T01:41:39.015Z,13.54
2022-10-17T01:44:27.276Z,13.49
2022-10-17T01:47:05.384Z,13.48
2022-10-17T01:49:36.790Z,13.48
2022-10-17T01:52:35.350Z,13.48
2022-10-17T01:55:09.472Z,13.48
2022-10-17T01:57:41.979Z,13.47
2022-10-17T02:00:18.827Z,13.46
2022-10-17T02:03:05.199Z,13.45
2022-10-17T02:05:40.257Z,13.44
2022-10-17T02:08:08.632Z,13.42
2022-10-17T02:10:53.280Z,13.40
2022-10-17T02:13:46.706Z,13.38
2022-10-17T02:16:27.845Z,13.36
2022-10-17T02:19:34.935Z,13.34
2022-10-17T02:22:24.242Z,13.33
2022-10-17T02:25:01.314Z,13.30
2022-10-17T02:27:45.491Z,13.27
2022-10-17T02:30:27.439Z,13.26
2022-10-17T02:33:01.255Z,13.24
2022-10-17T02:35:35.799Z,13.23
2022-10-17T02:38:06.703Z,13.23
2022-10-17T02:40:36.256Z,13.24
2022-10-17T02:43:04.885Z,13.26
2022-10-17T02:45:36.171Z,13.27
2022-10-17T02:48:11.218Z,13.28
2022-10-17T02:50:52.494Z,13.29
2022-10-17T02:53:40.111Z,13.30
2022-10-17T02:56:18.299Z,13.31
2022-10-17T02:58:58.460Z,13.32
2022-10-17T03:01:27.387Z,13.33
2022-10-17T03:04:10.371Z,13.33
2022-10-17T03:06:39.082Z,13.33
2022-10-17T03:09:09.014Z,13.30
2022-10-17T03:11:36.853Z,13.27
2022-10-17T03:14:05.415Z,13.24
2022-10-17T03:16:33.262Z,13.21
2022-10-17T03:19:01.174Z,13.16
2022-10-17T03:21:29.354Z,13.12
2022-10-17T03:23:58.007Z,13.08
2022-10-17T03:26:26.060Z,13.05
2022-10-17T03:28:54.613Z,13.02
2022-10-17T03:31:23.306Z,13.00
2022-10-17T03:33:51.841Z,12.97
2022-10-17T03:36:21.590Z,12.95
2022-10-17T03:38:55.530Z,12.91
2022-10-17T03:41:23.720Z,12.87
2022-10-17T03:43:53.943Z,12.83
2022-10-17T03:46:22.174Z,12.78
2022-10-17T03:48:50.256Z,12.76
2022-10-17T03:51:19.715Z,12.75
2022-10-17T03:53:52.261Z,12.75
2022-10-17T03:56:23.179Z,12.73
2022-10-17T03:58:59.671Z,12.71
2022-10-17T04:01:30.007Z,12.69
2022-10-17T04:03:58.028Z,12.67
2022-10-17T04:06:28.106Z,12.65
2022-10-17T04:08:55.977Z,12.64
2022-10-17T04:11:28.799Z,12.63
2022-10-17T04:14:00.323Z,12.62
2022-10-17T04:16:28.992Z,12.60
2022-10-17T04:19:03.237Z,12.58
2022-10-17T04:21:38.703Z,12.56
2022-10-17T04:24:11.676Z,12.53
2022-10-17T04:26:52.367Z,12.49
2022-10-17T04:29:22.008Z,12.46
2022-10-17T04:31:53.061Z,12.42
2022-10-17T04:34:26.038Z,12.38
2022-10-17T04:36:53.815Z,12.34
2022-10-17T04:39:22.984Z,12.31
2022-10-17T04:41:51.837Z,12.29
2022-10-17T04:44:20.848Z,12.28
2022-10-17T04:46:51.818Z,12.27
2022-10-17T04:49:20.540Z,12.24
2022-10-17T04:51:50.739Z,12.22
2022-10-17T04:54:40.110Z,12.19
2022-10-17T04:57:11.316Z,12.17
2022-10-17T04:59:39.997Z,12.14
2022-10-17T05:02:19.298Z,12.13
2022-10-17T05:04:47.146Z,12.12
2022-10-17T05:07:15.261Z,12.11
2022-10-17T05:10:00.103Z,12.10
2022-10-17T05:12:28.321Z,12.11
2022-10-17T05:14:56.087Z,12.09
2022-10-17T05:17:25.448Z,12.09
2022-10-17T05:19:53.825Z,12.09
2022-10-17T05:22:21.908Z,12.10
2022-10-17T05:24:50.616Z,12.13
2022-10-17T05:27:18.439Z,12.13
2022-10-17T05:29:46.743Z,12.15
2022-10-17T05:32:25.454Z,12.17
2022-10-17T05:34:53.231Z,12.20
2022-10-17T05:37:23.633Z,12.22
2022-10-17T05:39:52.881Z,12.24
2022-10-17T05:42:20.967Z,12.25
2022-10-17T05:44:49.132Z,12.28
2022-10-17T05:47:18.561Z,12.31
2022-10-17T05:49:51.421Z,12.33
2022-10-17T05:52:22.748Z,12.38
2022-10-17T05:54:59.999Z,12.41
2022-10-17T05:57:28.517Z,12.44
2022-10-17T05:59:57.647Z,12.46
2022-10-17T06:02:25.568Z,12.51
2022-10-17T06:04:53.672Z,12.56
2022-10-17T06:07:22.317Z,12.61
2022-10-17T06:09:50.459Z,12.68
2022-10-17T06:12:18.357Z,12.74
2022-10-17T06:14:48.358Z,12.80
2022-10-17T06:17:16.900Z,12.84
2022-10-17T06:19:45.389Z,12.90
2022-10-17T06:22:15.461Z,12.96
2022-10-17T06:24:44.193Z,13.02
2022-10-17T06:27:13.724Z,13.07
2022-10-17T06:29:42.519Z,13.12
2022-10-17T06:32:14.271Z,13.17
2022-10-17T06:34:44.767Z,13.23
2022-10-17T06:37:13.401Z,13.29
2022-10-17T06:39:43.585Z,13.33
2022-10-17T06:42:15.133Z,13.39
2022-10-17T06:45:09.943Z,13.43
2022-10-17T06:47:46.123Z,13.49
2022-10-17T06:50:27.803Z,13.56
2022-10-17T06:53:30.504Z,13.64
2022-10-17T06:56:16.195Z,13.71
2022-10-17T06:59:10.379Z,13.79
2022-10-17T07:01:46.968Z,13.86
2022-10-17T07:04:17.178Z,13.93
2022-10-17T07:06:45.005Z,14.00
2022-10-17T07:09:19.068Z,14.07
2022-10-17T07:11:48.473Z,14.13
2022-10-17T07:14:19.676Z,14.21
2022-10-17T07:16:48.123Z,14.29
2022-10-17T07:19:21.874Z,14.37
2022-10-17T07:21:50.931Z,14.44
2022-10-17T07:24:18.762Z,14.54
2022-10-17T07:26:50.494Z,14.63
2022-10-17T07:29:19.364Z,14.72
2022-10-17T07:31:57.905Z,14.84
2022-10-17T07:34:28.401Z,14.93
2022-10-17T07:36:56.191Z,15.02
2022-10-17T07:39:25.048Z,15.11
2022-10-17T07:41:52.755Z,15.21
2022-10-17T07:44:20.560Z,15.30
2022-10-17T07:46:51.283Z,15.39
2022-10-17T07:49:19.736Z,15.51
2022-10-17T07:51:49.067Z,15.62
2022-10-17T07:54:17.547Z,15.72
2022-10-17T07:56:51.514Z,15.82
2022-10-17T07:59:22.102Z,15.91
2022-10-17T08:01:49.857Z,16.00
2022-10-17T08:04:17.606Z,16.10
2022-10-17T08:06:45.623Z,16.21
2022-10-17T08:09:13.413Z,16.29
2022-10-17T08:11:41.236Z,16.38
2022-10-17T08:14:10.212Z,16.47
2022-10-17T08:16:38.222Z,16.56
2022-10-17T08:21:42.073Z,16.74
2022-10-17T08:24:11.228Z,16.85
2022-10-17T08:26:43.510Z,16.93
2022-10-17T08:29:16.974Z,17.02
2022-10-17T08:31:47.850Z,17.12
2022-10-17T08:34:17.756Z,17.24
2022-10-17T08:36:45.542Z,17.35
2022-10-17T08:39:16.572Z,17.44
2022-10-17T08:42:12.281Z,17.56
2022-10-17T08:45:00.238Z,17.68
2022-10-17T08:47:35.796Z,17.79
2022-10-17T08:50:08.615Z,17.90
2022-10-17T08:52:51.697Z,18.02
2022-10-17T08:55:45.600Z,18.15
2022-10-17T08:58:26.402Z,18.30
2022-10-17T09:01:13.704Z,18.41
2022-10-17T09:04:06.056Z,18.53
2022-10-17T09:06:48.221Z,18.64
2022-10-17T09:09:40.646Z,18.75
2022-10-17T09:12:18.160Z,18.86
2022-10-17T09:15:12.634Z,19.02
2022-10-17T09:17:53.026Z,19.15
2022-10-17T09:21:02.213Z,19.25
2022-10-17T09:24:03.979Z,19.39
2022-10-17T09:26:41.550Z,19.53
